Time;durP1;ratioP1;P1;durP2;ratioP2;P2;SDS_P1;SDS_P2;PMS_P1;PMS_P2;Temp;Humidity;BMP_temperature;BMP_pressure;BME280_temperature;BME280_humidity;BME280_pressure;Samples;Min_cycle;Max_cycle;Signal;HPM_P1;HPM_P2
2022/10/11 00:00:54;;;;;;;;;;;18.30;55.60;;;;;;5036453;28;19921;-78
2022/10/11 00:03:20;;;;;;;;;;;18.30;55.60;;;;;;5036548;28;19921;-78
2022/10/11 00:05:45;;;;;;;;;;;18.30;55.60;;;;;;5036639;28;20160;-78
2022/10/11 00:08:12;;;;;;;;;;;18.30;55.60;;;;;;5036481;28;20287;-78
2022/10/11 00:10:37;;;;;;;;;;;18.30;55.60;;;;;;5036176;28;19929;-78
2022/10/11 00:13:03;;;;;;;;;;;18.30;55.60;;;;;;5054181;28;19974;-78
2022/10/11 00:15:29;;;;;;;;;;;18.30;55.60;;;;;;5036476;28;19921;-78
2022/10/11 00:17:54;;;;;;;;;;;18.30;55.60;;;;;;5036630;28;20444;-78
2022/10/11 00:20:20;;;;;;;;;;;18.30;55.60;;;;;;5054145;28;20012;-78
2022/10/11 00:22:45;;;;;;;;;;;18.20;55.50;;;;;;5036395;28;19931;-79
2022/10/11 00:25:11;;;;;;;;;;;18.20;55.60;;;;;;5036561;28;19920;-73
2022/10/11 00:27:37;;;;;;;;;;;18.30;55.60;;;;;;5053988;28;20272;-78
2022/10/11 00:30:04;;;;;;;;;;;18.20;55.60;;;;;;5035928;28;20003;-78
2022/10/11 00:32:31;;;;;;;;;;;18.20;55.50;;;;;;5036253;28;20304;-79
2022/10/11 00:34:58;;;;;;;;;;;18.20;55.50;;;;;;5053855;28;19978;-79
2022/10/11 00:37:24;;;;;;;;;;;18.20;56.30;;;;;;5036310;28;20047;-78
2022/10/11 00:39:49;;;;;;;;;;;18.20;55.60;;;;;;5036190;28;20393;-79
2022/10/11 00:42:16;;;;;;;;;;;18.10;55.50;;;;;;5035751;28;19924;-78
2022/10/11 00:44:42;;;;;;;;;;;18.20;55.60;;;;;;5053613;28;19921;-78
2022/10/11 00:47:11;;;;;;;;;;;18.10;55.50;;;;;;5035861;28;20168;-78
2022/10/11 00:54:59;;;;;;;;;;;18.10;55.50;;;;;;5089989;28;20364;-77
2022/10/11 00:57:26;;;;;;;;;;;18.10;55.50;;;;;;5088422;28;20414;-77
2022/10/11 00:59:53;;;;;;;;;;;18.10;55.50;;;;;;5088542;28;20461;-77
2022/10/11 01:02:19;;;;;;;;;;;18.00;55.40;;;;;;5088782;28;20360;-78
2022/10/11 01:04:45;;;;;;;;;;;18.10;55.50;;;;;;5088476;28;19928;-77
2022/10/11 01:07:11;;;;;;;;;;;18.10;55.50;;;;;;5105614;28;19924;-77
2022/10/11 01:09:37;;;;;;;;;;;18.10;55.50;;;;;;5088343;28;19921;-77
2022/10/11 01:12:04;;;;;;;;;;;18.10;55.50;;;;;;5088223;28;19926;-77
2022/10/11 01:14:49;;;;;;;;;;;18.00;55.50;;;;;;5089435;28;20311;-78
2022/10/11 01:17:19;;;;;;;;;;;18.10;55.60;;;;;;5088223;28;20285;-78
2022/10/11 01:19:52;;;;;;;;;;;18.10;55.60;;;;;;5089571;28;19973;-77
2022/10/11 01:27:59;;;;;;;;;;;18.00;55.60;;;;;;5089876;28;19913;-77
2022/10/11 01:33:24;;;;;;;;;;;18.00;55.70;;;;;;5110226;27;19916;-77
2022/10/11 01:36:10;;;;;;;;;;;17.90;55.60;;;;;;5108755;28;20014;-77
2022/10/11 01:38:41;;;;;;;;;;;17.90;55.70;;;;;;5109947;28;19962;-77
2022/10/11 01:41:17;;;;;;;;;;;17.90;55.80;;;;;;5108820;28;19930;-77
2022/10/11 01:43:43;;;;;;;;;;;17.90;55.80;;;;;;5108681;28;19959;-77
2022/10/11 01:46:09;;;;;;;;;;;18.00;56.00;;;;;;5108750;28;19963;-76
2022/10/11 01:48:51;;;;;;;;;;;18.10;56.00;;;;;;5143385;27;19939;-77
2022/10/11 01:51:19;;;;;;;;;;;18.20;55.90;;;;;;5108857;28;20330;-72
2022/10/11 01:53:53;;;;;;;;;;;18.20;55.80;;;;;;5108586;28;20022;-76
2022/10/11 01:56:23;;;;;;;;;;;18.40;55.80;;;;;;5108470;28;19971;-72
2022/10/11 01:59:09;;;;;;;;;;;18.50;55.80;;;;;;5108810;28;20023;-77
2022/10/11 02:01:40;;;;;;;;;;;18.70;55.60;;;;;;5108198;28;19974;-77
2022/10/11 02:04:11;;;;;;;;;;;18.80;55.20;;;;;;5091386;28;20403;-78
2022/10/11 02:06:42;;;;;;;;;;;19.10;55.00;;;;;;5091708;28;19959;-77
2022/10/11 02:12:06;;;;;;;;;;;19.30;54.40;;;;;;5089916;28;19913;-77
2022/10/11 02:14:34;;;;;;;;;;;19.40;54.00;;;;;;5089779;28;19934;-72
2022/10/11 02:17:03;;;;;;;;;;;19.50;53.90;;;;;;5088534;28;19920;-73
2022/10/11 02:19:35;;;;;;;;;;;19.60;53.50;;;;;;5088658;28;20297;-72
2022/10/11 02:22:03;;;;;;;;;;;19.60;53.30;;;;;;5088496;28;19920;-77
2022/10/11 02:24:31;;;;;;;;;;;19.70;53.20;;;;;;5088658;28;20001;-78
2022/10/11 02:26:58;;;;;;;;;;;19.70;53.20;;;;;;5088673;28;19924;-72
2022/10/11 02:29:25;;;;;;;;;;;19.70;53.10;;;;;;5088563;28;19974;-77
2022/10/11 02:31:51;;;;;;;;;;;19.70;52.90;;;;;;5088288;28;19924;-77
2022/10/11 02:34:30;;;;;;;;;;;19.70;52.90;;;;;;5088491;28;19921;-78
2022/10/11 02:36:59;;;;;;;;;;;19.70;52.80;;;;;;5088491;28;20403;-77
2022/10/11 02:39:28;;;;;;;;;;;19.70;52.80;;;;;;5088095;28;19920;-78
2022/10/11 02:41:56;;;;;;;;;;;19.50;52.60;;;;;;5088394;28;20403;-77
2022/10/11 02:44:30;;;;;;;;;;;19.60;52.70;;;;;;5088054;28;19927;-78
2022/10/11 02:46:56;;;;;;;;;;;19.60;52.70;;;;;;5087964;28;19928;-77
2022/10/11 02:49:22;;;;;;;;;;;19.50;52.70;;;;;;5089266;28;19920;-77
2022/10/11 02:51:47;;;;;;;;;;;19.50;52.80;;;;;;5089083;28;19924;-78
2022/10/11 02:54:13;;;;;;;;;;;19.40;52.80;;;;;;5087810;28;19963;-77
2022/10/11 02:56:38;;;;;;;;;;;19.40;53.00;;;;;;5089033;28;19959;-77
2022/10/11 02:59:04;;;;;;;;;;;19.40;53.00;;;;;;5087789;28;20003;-72
2022/10/11 03:01:29;;;;;;;;;;;19.30;53.00;;;;;;5104875;28;19920;-77
2022/10/11 03:03:55;;;;;;;;;;;19.30;53.10;;;;;;5088070;28;20349;-77
2022/10/11 03:06:20;;;;;;;;;;;19.30;53.10;;;;;;5087568;28;19920;-77
2022/10/11 03:08:46;;;;;;;;;;;19.30;53.20;;;;;;5087888;28;19965;-78
2022/10/11 03:11:12;;;;;;;;;;;19.20;53.30;;;;;;5087141;28;20350;-72
2022/10/11 03:13:37;;;;;;;;;;;19.20;53.20;;;;;;5087697;28;19920;-77
2022/10/11 03:16:03;;;;;;;;;;;19.20;53.20;;;;;;5087370;28;19954;-77
2022/10/11 03:18:28;;;;;;;;;;;19.20;53.20;;;;;;5087677;28;19924;-77
2022/10/11 03:20:54;;;;;;;;;;;19.20;53.30;;;;;;5087604;28;20352;-77
2022/10/11 03:23:20;;;;;;;;;;;19.20;53.30;;;;;;5074338;28;20365;-78
2022/10/11 03:25:45;;;;;;;;;;;19.20;53.20;;;;;;5074263;28;20356;-78
2022/10/11 03:28:11;;;;;;;;;;;19.20;53.30;;;;;;5073672;28;20439;-77
2022/10/11 03:30:36;;;;;;;;;;;19.20;53.20;;;;;;5073647;28;19925;-78
2022/10/11 03:33:02;;;;;;;;;;;19.20;53.10;;;;;;5090706;28;19924;-77
2022/10/11 03:35:27;;;;;;;;;;;19.20;53.10;;;;;;5075044;28;19921;-78
2022/10/11 03:37:53;;;;;;;;;;;19.30;53.20;;;;;;5073798;28;19920;-78
2022/10/11 03:40:18;;;;;;;;;;;19.30;53.10;;;;;;5090702;28;20386;-75
2022/10/11 03:42:44;;;;;;;;;;;19.30;53.00;;;;;;5073399;28;19990;-78
2022/10/11 03:45:09;;;;;;;;;;;19.30;53.00;;;;;;5073633;28;19927;-78
2022/10/11 03:47:36;;;;;;;;;;;19.30;52.90;;;;;;5075061;28;19935;-78
2022/10/11 03:50:01;;;;;;;;;;;19.40;53.00;;;;;;5073541;28;19925;-77
2022/10/11 03:52:27;;;;;;;;;;;19.40;53.00;;;;;;5073520;28;20431;-78
2022/10/11 03:54:52;;;;;;;;;;;19.40;52.90;;;;;;5074646;28;20031;-78
2022/10/11 03:57:18;;;;;;;;;;;19.40;53.60;;;;;;5074389;28;19920;-79
2022/10/11 03:59:44;;;;;;;;;;;19.40;52.90;;;;;;5073615;28;20326;-79
2022/10/11 04:02:09;;;;;;;;;;;19.40;52.80;;;;;;5073303;28;20011;-78
2022/10/11 04:04:35;;;;;;;;;;;19.40;52.70;;;;;;5073317;28;19920;-78
2022/10/11 04:07:00;;;;;;;;;;;19.40;52.70;;;;;;5074396;28;20174;-78
2022/10/11 04:09:26;;;;;;;;;;;19.40;52.60;;;;;;5074166;28;19927;-78
2022/10/11 04:11:51;;;;;;;;;;;19.40;52.60;;;;;;5089564;28;19928;-78
2022/10/11 04:14:17;;;;;;;;;;;19.30;52.50;;;;;;5073114;28;20374;-78
2022/10/11 04:16:42;;;;;;;;;;;19.30;52.50;;;;;;5073161;28;20344;-73
2022/10/11 04:19:08;;;;;;;;;;;19.30;52.50;;;;;;5073944;28;20021;-78
2022/10/11 04:21:34;;;;;;;;;;;19.40;52.50;;;;;;5073976;28;19979;-79
2022/10/11 04:23:59;;;;;;;;;;;19.30;52.40;;;;;;5072663;28;19920;-78
2022/10/11 04:26:25;;;;;;;;;;;19.30;52.30;;;;;;5089574;28;20031;-77
2022/10/11 04:28:50;;;;;;;;;;;19.30;52.30;;;;;;5089712;28;19920;-78
2022/10/11 04:31:16;;;;;;;;;;;19.40;52.40;;;;;;5089260;28;20401;-78
2022/10/11 04:33:41;;;;;;;;;;;19.40;52.30;;;;;;5071352;28;19967;-78
2022/10/11 04:36:07;;;;;;;;;;;19.30;52.20;;;;;;5072447;28;19960;-79
2022/10/11 04:38:32;;;;;;;;;;;19.30;52.20;;;;;;5072388;28;20031;-78
2022/10/11 04:41:06;;;;;;;;;;;19.30;52.10;;;;;;5072300;28;19924;-78
2022/10/11 04:43:32;;;;;;;;;;;19.30;52.20;;;;;;5072327;28;19921;-79
2022/10/11 04:45:57;;;;;;;;;;;19.30;52.10;;;;;;5073502;28;19921;-72
2022/10/11 04:48:23;;;;;;;;;;;19.40;52.20;;;;;;5072059;28;20365;-78
2022/10/11 04:50:48;;;;;;;;;;;19.30;52.10;;;;;;5073208;28;19931;-78
2022/10/11 04:53:14;;;;;;;;;;;19.40;52.10;;;;;;5072063;28;19921;-78
2022/10/11 04:55:39;;;;;;;;;;;19.40;52.10;;;;;;5072151;28;19921;-78
2022/10/11 04:58:05;;;;;;;;;;;19.40;52.00;;;;;;5073258;28;19924;-79
2022/10/11 05:00:31;;;;;;;;;;;19.30;52.00;;;;;;5071837;28;19924;-79
2022/10/11 05:02:56;;;;;;;;;;;19.40;51.90;;;;;;5073192;28;19920;-78
2022/10/11 05:05:22;;;;;;;;;;;19.30;51.80;;;;;;5071912;28;19974;-79
2022/10/11 05:07:47;;;;;;;;;;;19.30;51.80;;;;;;5073010;28;20432;-79
2022/10/11 05:10:13;;;;;;;;;;;19.40;51.90;;;;;;5071613;28;20019;-78
2022/10/11 05:12:39;;;;;;;;;;;19.40;51.80;;;;;;5071806;28;19967;-79
2022/10/11 05:15:05;;;;;;;;;;;19.30;51.70;;;;;;5072764;28;19920;-79
2022/10/11 05:17:31;;;;;;;;;;;19.30;51.70;;;;;;5071930;28;20021;-79
2022/10/11 05:19:56;;;;;;;;;;;19.40;51.70;;;;;;5071411;28;20403;-79
2022/10/11 05:22:22;;;;;;;;;;;19.30;51.60;;;;;;5071820;28;19931;-79
2022/10/11 05:24:47;;;;;;;;;;;19.30;51.70;;;;;;5071752;28;20288;-79
2022/10/11 05:27:13;;;;;;;;;;;19.40;51.60;;;;;;5071982;28;20407;-72
2022/10/11 05:29:38;;;;;;;;;;;19.40;51.90;;;;;;5071327;28;20324;-73
2022/10/11 05:32:04;;;;;;;;;;;19.40;52.30;;;;;;5071183;28;19967;-73
2022/10/11 05:34:30;;;;;;;;;;;19.40;52.60;;;;;;5069012;28;19921;-76
2022/10/11 05:36:56;;;;;;;;;;;19.60;53.10;;;;;;5070033;28;19924;-77
2022/10/11 05:39:21;;;;;;;;;;;19.70;52.90;;;;;;5069555;28;20292;-73
2022/10/11 05:41:47;;;;;;;;;;;19.80;52.60;;;;;;5066068;28;20003;-72
2022/10/11 05:44:12;;;;;;;;;;;20.00;52.20;;;;;;5069097;28;19954;-72
2022/10/11 05:46:38;;;;;;;;;;;20.10;51.90;;;;;;5068752;28;19920;-68
2022/10/11 05:49:03;;;;;;;;;;;20.20;51.60;;;;;;5068760;28;19974;-74
2022/10/11 05:51:29;;;;;;;;;;;20.30;51.60;;;;;;5065845;28;19971;-75
2022/10/11 05:53:55;;;;;;;;;;;20.40;51.40;;;;;;5067316;28;20258;-72
2022/10/11 05:56:22;;;;;;;;;;;20.50;51.60;;;;;;5060917;28;20295;-71
2022/10/11 05:58:47;;;;;;;;;;;20.50;51.40;;;;;;5068529;28;20383;-71
2022/10/11 06:01:22;;;;;;;;;;;20.60;51.40;;;;;;5085315;28;19963;-70
2022/10/11 06:03:48;;;;;;;;;;;20.70;51.50;;;;;;5067026;28;19921;-70
2022/10/11 06:06:13;;;;;;;;;;;20.80;51.40;;;;;;5065673;28;19921;-73
2022/10/11 06:08:39;;;;;;;;;;;21.00;51.40;;;;;;5061105;28;19931;-72
2022/10/11 06:11:08;;;;;;;;;;;21.10;50.70;;;;;;5062821;28;19952;-72
2022/10/11 06:13:34;;;;;;;;;;;21.20;48.60;;;;;;5057862;28;19979;-73
2022/10/11 06:16:02;;;;;;;;;;;21.20;47.50;;;;;;5050240;28;19920;-76
2022/10/11 06:18:27;;;;;;;;;;;21.20;48.20;;;;;;5057791;28;19935;-72
2022/10/11 06:20:53;;;;;;;;;;;21.20;47.10;;;;;;5051217;28;20028;-72
2022/10/11 06:23:18;;;;;;;;;;;21.20;46.10;;;;;;5052972;28;19976;-69
2022/10/11 06:25:54;;;;;;;;;;;21.10;47.50;;;;;;5047313;28;19951;-71
2022/10/11 06:28:19;;;;;;;;;;;21.10;47.90;;;;;;5043282;28;20575;-74
2022/10/11 06:30:45;;;;;;;;;;;21.10;48.20;;;;;;5047022;28;20136;-76
2022/10/11 06:33:10;;;;;;;;;;;21.10;48.30;;;;;;5042684;28;19931;-72
2022/10/11 06:35:36;;;;;;;;;;;21.20;48.60;;;;;;5047782;28;19929;-72
2022/10/11 06:38:01;;;;;;;;;;;21.10;48.40;;;;;;5053639;28;19924;-71
2022/10/11 06:40:27;;;;;;;;;;;21.10;48.80;;;;;;5052637;28;19964;-72
2022/10/11 06:42:52;;;;;;;;;;;21.00;48.90;;;;;;5047110;28;19960;-71
2022/10/11 06:45:21;;;;;;;;;;;20.90;49.10;;;;;;5045561;28;20261;-71
2022/10/11 06:47:46;;;;;;;;;;;20.90;48.70;;;;;;5049508;28;19928;-75
2022/10/11 06:50:12;;;;;;;;;;;20.80;49.30;;;;;;5049789;28;19931;-75
2022/10/11 06:52:38;;;;;;;;;;;20.90;49.90;;;;;;5051918;28;22055;-73
2022/10/11 06:55:03;;;;;;;;;;;20.80;50.00;;;;;;5051843;28;19971;-74
2022/10/11 06:57:29;;;;;;;;;;;20.80;50.10;;;;;;5052825;28;19947;-74
2022/10/11 06:59:54;;;;;;;;;;;20.80;50.10;;;;;;5055323;28;19940;-73
2022/10/11 07:02:20;;;;;;;;;;;20.70;50.10;;;;;;5054385;28;19932;-74
2022/10/11 07:04:45;;;;;;;;;;;20.70;50.30;;;;;;5070199;28;19928;-70
2022/10/11 07:07:12;;;;;;;;;;;20.70;50.50;;;;;;5055326;28;19924;-70
2022/10/11 07:09:37;;;;;;;;;;;20.70;50.70;;;;;;5056722;28;19920;-72
2022/10/11 07:12:03;;;;;;;;;;;20.70;50.80;;;;;;5076890;28;19947;-74
2022/10/11 07:14:28;;;;;;;;;;;20.60;51.00;;;;;;5056137;28;20474;-75
2022/10/11 07:16:54;;;;;;;;;;;20.60;51.10;;;;;;5074672;28;22707;-74
2022/10/11 07:19:19;;;;;;;;;;;20.60;51.20;;;;;;5074902;28;19924;-72
2022/10/11 07:21:45;;;;;;;;;;;20.60;51.30;;;;;;5075501;28;19934;-74
2022/10/11 07:24:10;;;;;;;;;;;20.50;51.40;;;;;;5075607;28;20287;-75
2022/10/11 07:26:36;;;;;;;;;;;20.50;51.40;;;;;;5058097;28;20376;-70
2022/10/11 07:29:02;;;;;;;;;;;20.50;51.50;;;;;;5073196;28;19921;-69
2022/10/11 07:31:27;;;;;;;;;;;20.50;51.80;;;;;;5054136;28;19936;-76
2022/10/11 07:33:53;;;;;;;;;;;20.40;51.70;;;;;;5060279;28;19920;-73
2022/10/11 07:36:19;;;;;;;;;;;20.40;51.90;;;;;;5057324;28;19929;-75
2022/10/11 07:38:45;;;;;;;;;;;20.40;52.10;;;;;;5072934;28;19977;-73
2022/10/11 07:41:11;;;;;;;;;;;20.40;52.20;;;;;;5055886;28;20038;-71
2022/10/11 07:43:37;;;;;;;;;;;20.40;52.40;;;;;;5055198;28;20011;-72
2022/10/11 07:46:03;;;;;;;;;;;20.40;52.60;;;;;;5056828;28;20010;-71
2022/10/11 07:48:29;;;;;;;;;;;20.30;52.60;;;;;;5074405;28;20375;-71
2022/10/11 07:51:03;;;;;;;;;;;20.30;52.90;;;;;;5073425;28;19932;-73
2022/10/11 07:53:29;;;;;;;;;;;20.30;52.80;;;;;;5071599;28;19924;-74
2022/10/11 07:55:57;;;;;;;;;;;20.30;53.00;;;;;;5055930;28;20355;-75
2022/10/11 07:58:23;;;;;;;;;;;20.30;53.20;;;;;;5060959;28;19920;-71
2022/10/11 08:00:51;;;;;;;;;;;20.20;53.10;;;;;;5056788;28;19974;-73
2022/10/11 08:03:16;;;;;;;;;;;20.20;53.80;;;;;;5074792;28;19920;-72
2022/10/11 08:05:42;;;;;;;;;;;20.20;53.30;;;;;;5071737;28;19924;-75
2022/10/11 08:08:07;;;;;;;;;;;20.20;53.20;;;;;;5056498;28;19931;-74
2022/10/11 08:10:37;;;;;;;;;;;20.20;53.30;;;;;;5053697;28;20307;-75
2022/10/11 08:13:03;;;;;;;;;;;20.20;53.30;;;;;;5050190;28;20303;-73
2022/10/11 08:15:28;;;;;;;;;;;20.20;53.30;;;;;;5056521;28;19921;-77
2022/10/11 08:17:54;;;;;;;;;;;20.20;53.40;;;;;;5054128;28;19964;-72
2022/10/11 08:20:19;;;;;;;;;;;20.20;53.60;;;;;;5056109;28;20455;-76
2022/10/11 08:22:45;;;;;;;;;;;20.20;53.50;;;;;;5055445;28;19929;-73
2022/10/11 08:25:10;;;;;;;;;;;20.10;53.40;;;;;;5057716;28;19931;-78
2022/10/11 08:27:36;;;;;;;;;;;20.20;53.40;;;;;;5068225;28;19963;-80
2022/10/11 08:30:02;;;;;;;;;;;20.30;53.50;;;;;;5054951;28;19974;-75
2022/10/11 08:32:28;;;;;;;;;;;20.30;53.70;;;;;;5051265;28;19920;-73
2022/10/11 08:34:53;;;;;;;;;;;20.40;53.70;;;;;;5056861;28;20335;-76
2022/10/11 08:37:19;;;;;;;;;;;20.50;53.50;;;;;;5056093;28;19920;-84
2022/10/11 08:39:44;;;;;;;;;;;20.60;53.50;;;;;;5053547;28;19924;-76
2022/10/11 08:42:14;;;;;;;;;;;20.70;53.60;;;;;;5053536;28;20311;-77
2022/10/11 08:44:57;;;;;;;;;;;20.80;53.40;;;;;;5061708;28;19932;-75
2022/10/11 08:47:39;;;;;;;;;;;20.90;53.30;;;;;;5058244;28;20719;-74
2022/10/11 08:50:06;;;;;;;;;;;21.00;53.10;;;;;;5047706;28;19929;-73
2022/10/11 08:52:41;;;;;;;;;;;21.10;52.50;;;;;;5051748;28;19928;-78
2022/10/11 08:55:11;;;;;;;;;;;21.20;52.90;;;;;;5051152;28;19936;-76
2022/10/11 08:57:37;;;;;;;;;;;21.20;52.90;;;;;;5055329;28;19924;-77
2022/10/11 09:00:05;;;;;;;;;;;21.30;52.90;;;;;;5069462;28;20486;-81
2022/10/11 09:05:13;;;;;;;;;;;21.40;52.40;;;;;;5072356;27;19925;-74
2022/10/11 09:07:47;;;;;;;;;;;21.40;52.70;;;;;;5058512;28;20427;-75
2022/10/11 09:10:32;;;;;;;;;;;21.40;52.60;;;;;;5063036;28;20274;-76
2022/10/11 09:13:08;;;;;;;;;;;21.40;52.70;;;;;;5058691;28;20068;-76
2022/10/11 09:15:53;;;;;;;;;;;21.40;52.70;;;;;;5048157;28;20012;-71
2022/10/11 09:18:27;;;;;;;;;;;21.40;52.70;;;;;;5053042;28;20019;-71
2022/10/11 09:21:12;;;;;;;;;;;21.40;52.80;;;;;;5090463;28;19932;-81
2022/10/11 09:26:28;;;;;;;;;;;21.40;52.60;;;;;;5088299;27;19946;-72
2022/10/11 09:31:39;;;;;;;;;;;21.40;52.60;;;;;;5054719;27;19931;-75
2022/10/11 09:34:09;;;;;;;;;;;21.40;52.70;;;;;;5026036;28;19936;-73
2022/10/11 09:36:54;;;;;;;;;;;21.30;52.70;;;;;;5032089;28;19947;-75
2022/10/11 09:42:01;;;;;;;;;;;21.30;52.80;;;;;;5084243;27;1869905;-72
2022/10/11 09:44:28;;;;;;;;;;;21.30;52.90;;;;;;5113338;27;20461;-72
2022/10/11 09:46:55;;;;;;;;;;;21.30;52.60;;;;;;5104286;27;19920;-73
2022/10/11 09:49:21;;;;;;;;;;;21.20;53.00;;;;;;5110402;27;19965;-70
2022/10/11 09:51:52;;;;;;;;;;;21.20;53.10;;;;;;5110221;27;20862;-71
2022/10/11 09:54:26;;;;;;;;;;;21.40;53.30;;;;;;5117379;27;20024;-73
2022/10/11 09:56:51;;;;;;;;;;;21.20;53.30;;;;;;5106459;27;19959;-71
2022/10/11 09:59:26;;;;;;;;;;;21.20;53.40;;;;;;5110765;27;20395;-72
2022/10/11 10:02:14;;;;;;;;;;;21.20;53.50;;;;;;5105345;27;19931;-71
2022/10/11 10:05:00;;;;;;;;;;;21.20;53.60;;;;;;5122225;27;20452;-71
2022/10/11 10:07:26;;;;;;;;;;;21.10;53.00;;;;;;5102540;27;20556;-73
2022/10/11 10:09:52;;;;;;;;;;;21.20;53.50;;;;;;5127713;27;20390;-72
2022/10/11 10:12:20;;;;;;;;;;;21.10;53.60;;;;;;5120207;27;19927;-71
2022/10/11 10:14:54;;;;;;;;;;;21.10;53.80;;;;;;5107217;27;19972;-73
2022/10/11 10:17:20;;;;;;;;;;;21.10;53.90;;;;;;5131309;27;20378;-82
2022/10/11 10:19:47;;;;;;;;;;;21.10;53.80;;;;;;5110039;27;19927;-72
2022/10/11 10:22:16;;;;;;;;;;;21.00;53.40;;;;;;5107892;27;19928;-78
2022/10/11 10:24:41;;;;;;;;;;;21.10;52.80;;;;;;5104871;27;19952;-70
2022/10/11 10:27:24;;;;;;;;;;;21.00;52.70;;;;;;5127171;27;19924;-73
2022/10/11 10:30:00;;;;;;;;;;;21.00;53.40;;;;;;5117710;27;19971;-76
2022/10/11 10:32:29;;;;;;;;;;;20.90;53.70;;;;;;5130230;27;19927;-72
2022/10/11 10:35:01;;;;;;;;;;;20.90;52.80;;;;;;5111021;27;19927;-77
2022/10/11 10:40:13;;;;;;;;;;;21.00;53.20;;;;;;5100460;27;1907566;-75
2022/10/11 10:42:38;;;;;;;;;;;20.90;53.40;;;;;;5146045;27;19923;-76
2022/10/11 10:45:06;;;;;;;;;;;20.90;53.70;;;;;;5136571;27;19923;-75
2022/10/11 10:47:51;;;;;;;;;;;20.90;53.70;;;;;;5143837;27;19925;-74
2022/10/11 10:50:26;;;;;;;;;;;20.90;53.80;;;;;;5148890;27;20006;-78
2022/10/11 10:55:36;;;;;;;;;;;20.90;54.10;;;;;;5091315;27;1880126;-74
2022/10/11 10:58:21;;;;;;;;;;;20.90;54.00;;;;;;5136195;27;20502;-77
2022/10/11 11:00:48;;;;;;;;;;;20.90;54.20;;;;;;5131998;27;19927;-78
2022/10/11 11:03:19;;;;;;;;;;;20.90;54.20;;;;;;5127933;27;20394;-78
2022/10/11 11:06:05;;;;;;;;;;;20.90;54.30;;;;;;5135052;27;20570;-69
2022/10/11 11:08:50;;;;;;;;;;;20.80;53.90;;;;;;5131496;27;20374;-71
2022/10/11 11:11:36;;;;;;;;;;;20.80;53.90;;;;;;5129202;27;19919;-81
2022/10/11 11:14:21;;;;;;;;;;;20.80;54.10;;;;;;5136362;27;19934;-73
2022/10/11 11:19:47;;;;;;;;;;;20.80;54.40;;;;;;5079854;27;19924;-72
2022/10/11 11:25:06;;;;;;;;;;;20.70;54.60;;;;;;5078718;27;20407;-73
2022/10/11 11:30:34;;;;;;;;;;;20.70;54.80;;;;;;5070763;27;20337;-74
2022/10/11 11:33:13;;;;;;;;;;;20.70;55.00;;;;;;5071931;28;19956;-78
2022/10/11 11:35:42;;;;;;;;;;;20.70;55.00;;;;;;5073760;28;19943;-86
2022/10/11 11:38:13;;;;;;;;;;;20.70;55.00;;;;;;5073076;28;19928;-73
2022/10/11 11:40:41;;;;;;;;;;;20.70;55.00;;;;;;5074054;28;19932;-75
2022/10/11 11:43:14;;;;;;;;;;;20.60;55.30;;;;;;5072336;28;19920;-77
2022/10/11 11:48:23;;;;;;;;;;;20.60;55.20;;;;;;5071413;27;19917;-74
2022/10/11 11:50:55;;;;;;;;;;;20.60;55.50;;;;;;5068072;28;19925;-70
2022/10/11 11:53:25;;;;;;;;;;;20.60;55.60;;;;;;5051680;28;20003;-72
2022/10/11 12:01:22;;;;;;;;;;;20.60;55.60;;;;;;5072693;27;1884641;-74
2022/10/11 12:03:49;;;;;;;;;;;20.70;55.80;;;;;;5126058;27;19923;-73
2022/10/11 12:06:18;;;;;;;;;;;20.70;55.80;;;;;;5133818;27;19923;-73
2022/10/11 12:08:47;;;;;;;;;;;20.70;55.90;;;;;;5122918;27;19934;-75
2022/10/11 12:11:19;;;;;;;;;;;20.70;56.00;;;;;;5115425;27;19953;-70
2022/10/11 12:13:45;;;;;;;;;;;20.70;55.80;;;;;;5119557;27;19927;-76
2022/10/11 12:16:12;;;;;;;;;;;20.70;56.00;;;;;;5134328;27;19927;-78
2022/10/11 12:18:57;;;;;;;;;;;20.70;56.00;;;;;;5129045;27;19927;-72
2022/10/11 12:27:20;;;;;;;;;;;20.70;56.00;;;;;;5046604;28;19921;-71
2022/10/11 12:29:47;;;;;;;;;;;20.80;56.00;;;;;;5043204;28;19929;-70
2022/10/11 12:32:33;;;;;;;;;;;20.80;56.00;;;;;;5051255;28;20011;-74
2022/10/11 12:35:18;;;;;;;;;;;20.80;56.00;;;;;;5040085;28;20019;-71
2022/10/11 12:37:48;;;;;;;;;;;20.70;55.90;;;;;;5036274;28;20028;-75
2022/10/11 12:40:34;;;;;;;;;;;20.80;56.00;;;;;;5039742;28;19925;-75
2022/10/11 12:43:21;;;;;;;;;;;20.80;55.90;;;;;;5041450;28;19929;-73
2022/10/11 12:45:47;;;;;;;;;;;20.80;55.90;;;;;;5039370;28;20021;-78
2022/10/11 12:48:32;;;;;;;;;;;20.80;56.00;;;;;;5045550;28;20033;-69
2022/10/11 12:54:13;;;;;;;;;;;20.80;56.00;;;;;;5062074;28;19950;-80
2022/10/11 12:56:47;;;;;;;;;;;20.80;56.00;;;;;;5063132;28;20002;-74
2022/10/11 12:59:21;;;;;;;;;;;20.90;56.20;;;;;;5067372;28;19932;-71
2022/10/11 13:01:50;;;;;;;;;;;20.80;55.50;;;;;;5065556;28;19925;-73
2022/10/11 13:04:17;;;;;;;;;;;20.80;55.00;;;;;;5081399;28;20448;-73
2022/10/11 13:06:45;;;;;;;;;;;20.90;55.00;;;;;;5062942;28;19927;-69
2022/10/11 13:14:42;;;;;;;;;;;20.80;54.00;;;;;;5095739;27;1861630;-74
2022/10/11 13:17:16;;;;;;;;;;;20.90;54.70;;;;;;5137973;27;19979;-81
2022/10/11 13:19:42;;;;;;;;;;;20.80;54.70;;;;;;5140338;27;19919;-79
2022/10/11 13:22:16;;;;;;;;;;;20.90;53.70;;;;;;5143389;27;19923;-77
2022/10/11 13:24:42;;;;;;;;;;;20.80;54.00;;;;;;5126712;27;20373;-76
2022/10/11 13:27:13;;;;;;;;;;;20.80;53.60;;;;;;5144616;27;19983;-75
2022/10/11 13:29:39;;;;;;;;;;;20.80;53.50;;;;;;5145494;27;19929;-75
2022/10/11 13:32:07;;;;;;;;;;;20.80;53.40;;;;;;5142692;27;20374;-76
2022/10/11 13:34:36;;;;;;;;;;;20.80;53.20;;;;;;5144169;27;20429;-75
2022/10/11 13:37:01;;;;;;;;;;;20.80;53.40;;;;;;5145571;27;19919;-75
2022/10/11 13:39:28;;;;;;;;;;;20.80;53.50;;;;;;5143045;27;20694;-75
2022/10/11 13:41:55;;;;;;;;;;;20.80;53.50;;;;;;5164522;27;19918;-75
2022/10/11 13:44:21;;;;;;;;;;;20.80;53.50;;;;;;5143872;27;19950;-76
2022/10/11 13:46:46;;;;;;;;;;;20.70;53.50;;;;;;5141282;27;19927;-75
2022/10/11 13:49:39;;;;;;;;;;;20.80;53.70;;;;;;5142177;27;19919;-75
2022/10/11 13:52:16;;;;;;;;;;;20.80;53.60;;;;;;5145332;27;19971;-76
2022/10/11 13:57:40;;;;;;;;;;;20.80;53.00;;;;;;5101475;27;19940;-74
2022/10/11 14:00:07;;;;;;;;;;;20.70;53.40;;;;;;5100016;28;20011;-74
2022/10/11 14:02:32;;;;;;;;;;;20.80;53.30;;;;;;5101287;28;19959;-74
2022/10/11 14:04:58;;;;;;;;;;;20.80;53.30;;;;;;5100179;28;20010;-75
2022/10/11 14:10:05;;;;;;;;;;;20.70;53.40;;;;;;5059886;28;19917;-72
2022/10/11 14:12:37;;;;;;;;;;;20.70;53.40;;;;;;5058942;28;19932;-72
2022/10/11 14:15:04;;;;;;;;;;;20.80;53.30;;;;;;5064311;28;20019;-72
2022/10/11 14:17:36;;;;;;;;;;;20.80;53.00;;;;;;5038867;28;19921;-77
2022/10/11 14:20:07;;;;;;;;;;;20.70;53.20;;;;;;5059472;28;20320;-77
2022/10/11 14:22:33;;;;;;;;;;;20.70;53.30;;;;;;5066070;28;20016;-76
2022/10/11 14:24:59;;;;;;;;;;;20.70;53.40;;;;;;5059573;28;20356;-79
2022/10/11 14:27:26;;;;;;;;;;;20.80;53.40;;;;;;5063130;28;19994;-75
2022/10/11 14:29:52;;;;;;;;;;;20.80;53.40;;;;;;5079108;28;20008;-73
2022/10/11 14:32:19;;;;;;;;;;;20.80;53.40;;;;;;5064310;28;20354;-76
2022/10/11 14:34:46;;;;;;;;;;;20.80;53.40;;;;;;5065222;28;19947;-75
2022/10/11 14:37:13;;;;;;;;;;;20.80;53.40;;;;;;5064852;28;19977;-72
2022/10/11 14:39:40;;;;;;;;;;;20.70;53.40;;;;;;5063749;28;19943;-73
2022/10/11 14:42:06;;;;;;;;;;;20.70;53.50;;;;;;5062567;28;20432;-73
2022/10/11 14:44:31;;;;;;;;;;;20.70;53.50;;;;;;5069006;28;20439;-74
2022/10/11 14:46:58;;;;;;;;;;;20.70;53.50;;;;;;5068201;28;19921;-74
2022/10/11 14:49:25;;;;;;;;;;;20.60;53.50;;;;;;5063349;28;19924;-74
2022/10/11 14:51:51;;;;;;;;;;;20.60;53.60;;;;;;5063408;28;19924;-74
2022/10/11 14:54:17;;;;;;;;;;;20.60;53.80;;;;;;5062966;28;19931;-74
2022/10/11 14:56:43;;;;;;;;;;;20.60;53.70;;;;;;5066206;28;19927;-75
2022/10/11 14:59:13;;;;;;;;;;;20.60;53.80;;;;;;5081928;28;19989;-73
2022/10/11 15:01:38;;;;;;;;;;;20.60;53.80;;;;;;5073289;28;19928;-75
2022/10/11 15:04:04;;;;;;;;;;;20.50;53.80;;;;;;5073998;28;19920;-75
2022/10/11 15:06:31;;;;;;;;;;;20.50;53.90;;;;;;5075069;28;20379;-74
2022/10/11 15:08:57;;;;;;;;;;;20.50;53.90;;;;;;5073398;28;20351;-74
2022/10/11 15:11:23;;;;;;;;;;;20.50;53.90;;;;;;5072826;28;19920;-74
2022/10/11 15:13:49;;;;;;;;;;;20.50;54.00;;;;;;5065546;28;20405;-74
2022/10/11 15:16:16;;;;;;;;;;;20.50;54.10;;;;;;5067645;28;19920;-72
2022/10/11 15:18:42;;;;;;;;;;;20.50;54.10;;;;;;5074513;28;19928;-75
2022/10/11 15:21:16;;;;;;;;;;;20.40;54.10;;;;;;5071900;28;20392;-76
2022/10/11 15:23:42;;;;;;;;;;;20.40;54.10;;;;;;5073862;28;19920;-73
2022/10/11 15:26:08;;;;;;;;;;;20.40;54.20;;;;;;5071692;28;20026;-73
2022/10/11 15:28:34;;;;;;;;;;;20.40;54.30;;;;;;5072417;28;19970;-73
2022/10/11 15:30:59;;;;;;;;;;;20.40;54.30;;;;;;5073415;28;20442;-73
2022/10/11 15:33:25;;;;;;;;;;;20.40;54.30;;;;;;5073434;28;19946;-76